createdAt,value
2017-09-18T00:03:09.088Z,4.7
2017-09-18T00:11:09.637Z,4.5
2017-09-18T00:25:10.508Z,4.4
2017-09-18T00:26:10.620Z,4.5
2017-09-18T00:27:10.673Z,4.4
2017-09-18T00:40:11.497Z,4.3
2017-09-18T00:47:11.959Z,4.2
2017-09-18T01:14:13.680Z,4
2017-09-18T01:25:14.367Z,3.9
2017-09-18T01:26:14.402Z,4
2017-09-18T01:27:14.509Z,3.9
2017-09-18T01:36:15.065Z,3.8
2017-09-18T01:45:15.629Z,3.9
2017-09-18T01:46:15.692Z,3.8
2017-09-18T01:47:15.885Z,3.9
2017-09-18T01:48:15.836Z,3.8
2017-09-18T01:58:16.574Z,3.9
2017-09-18T02:08:17.090Z,4
2017-09-18T02:09:17.150Z,3.9
2017-09-18T02:15:17.552Z,4
2017-09-18T02:16:17.616Z,3.9
2017-09-18T02:18:17.743Z,4
2017-09-18T02:24:18.197Z,3.9
2017-09-18T02:41:19.255Z,3.8
2017-09-18T02:42:19.319Z,3.9
2017-09-18T02:43:19.407Z,3.8
2017-09-18T02:45:19.464Z,3.9
2017-09-18T02:46:19.531Z,3.8
2017-09-18T02:47:19.585Z,3.9
2017-09-18T02:48:19.712Z,3.8
2017-09-18T02:54:20.060Z,3.7
2017-09-18T03:07:20.878Z,3.8
2017-09-18T03:22:21.837Z,3.7
2017-09-18T03:28:22.254Z,3.5
2017-09-18T03:29:22.355Z,3.7
2017-09-18T03:30:22.366Z,3.5
2017-09-18T03:32:22.493Z,3.4
2017-09-18T03:33:22.555Z,3.5
2017-09-18T03:34:22.639Z,3.4
2017-09-18T03:40:23.101Z,3.3
2017-09-18T03:47:23.521Z,3.2
2017-09-18T03:56:24.068Z,3
2017-09-18T04:17:25.430Z,3.2
2017-09-18T04:19:25.519Z,3
2017-09-18T04:20:25.627Z,3.2
2017-09-18T04:25:26.110Z,3.3
2017-09-18T04:55:27.859Z,3.4
2017-09-18T05:00:28.177Z,3.5
2017-09-18T05:06:28.600Z,3.7
2017-09-18T05:07:28.632Z,3.5
2017-09-18T05:08:28.633Z,3.7
2017-09-18T05:11:28.885Z,3.8
2017-09-18T05:18:29.343Z,3.9
2017-09-18T05:22:29.594Z,4
2017-09-18T05:25:29.741Z,4.2
2017-09-18T05:29:30.041Z,4.3
2017-09-18T05:31:30.157Z,4.4
2017-09-18T05:33:30.270Z,4.5
2017-09-18T05:37:30.621Z,4.7
2017-09-18T05:39:30.747Z,4.8
2017-09-18T05:41:31.347Z,4.9
2017-09-18T05:43:30.969Z,5
2017-09-18T05:45:31.106Z,5.2
2017-09-18T05:46:31.302Z,5.3
2017-09-18T05:48:31.305Z,5.4
2017-09-18T05:49:31.365Z,5.8
2017-09-18T05:50:31.434Z,6.9
2017-09-18T05:51:31.543Z,7.9
2017-09-18T05:52:31.573Z,8.8
2017-09-18T05:53:31.591Z,9.5
2017-09-18T05:54:31.670Z,10.1
2017-09-18T05:55:31.689Z,10.6
2017-09-18T05:56:31.849Z,11.1
2017-09-18T05:57:31.875Z,11.8
2017-09-18T05:58:31.890Z,12.1
2017-09-18T05:59:31.964Z,12.5
2017-09-18T06:00:32.020Z,12.9
2017-09-18T06:01:32.333Z,13.3
2017-09-18T06:02:32.147Z,13.6
2017-09-18T06:03:32.221Z,14
2017-09-18T06:04:32.331Z,14.4
2017-09-18T06:05:32.407Z,14.8
2017-09-18T06:06:32.572Z,15.1
2017-09-18T06:07:32.514Z,15.5
2017-09-18T06:08:32.548Z,15.8
2017-09-18T06:09:32.648Z,16
2017-09-18T06:10:32.712Z,16.1
2017-09-18T06:12:32.810Z,16.4
2017-09-18T06:13:32.867Z,16.9
2017-09-18T06:14:32.982Z,17.3
2017-09-18T06:15:33.121Z,17.6
2017-09-18T06:16:33.135Z,18
2017-09-18T06:17:33.118Z,18.3
2017-09-18T06:18:33.259Z,18.5
2017-09-18T06:19:33.277Z,18.3
2017-09-18T06:20:33.370Z,17
2017-09-18T06:21:33.424Z,16
2017-09-18T06:22:33.496Z,15.3
2017-09-18T06:23:33.571Z,14.8
2017-09-18T06:24:33.656Z,14.5
2017-09-18T06:25:33.696Z,14.6
2017-09-18T06:26:33.775Z,15
2017-09-18T06:28:33.897Z,14.6
2017-09-18T06:29:33.958Z,15.4
2017-09-18T06:30:34.007Z,16.6
2017-09-18T06:31:34.036Z,16.8
2017-09-18T06:32:34.153Z,17
2017-09-18T06:33:34.234Z,17.5
2017-09-18T06:34:34.312Z,17.3
2017-09-18T06:35:34.352Z,16.5
2017-09-18T06:36:34.412Z,16.1
2017-09-18T06:37:34.483Z,16
2017-09-18T06:38:34.520Z,15.5
2017-09-18T06:39:34.571Z,15.1
2017-09-18T06:40:34.696Z,14.6
2017-09-18T06:41:34.685Z,14.4
2017-09-18T06:42:34.740Z,14.1
2017-09-18T06:43:34.830Z,13.8
2017-09-18T06:44:34.866Z,13.6
2017-09-18T06:45:34.945Z,13.4
2017-09-18T06:46:35.015Z,13.3
2017-09-18T06:48:35.154Z,14.3
2017-09-18T06:49:35.211Z,15.9
2017-09-18T06:50:35.276Z,16.9
2017-09-18T06:51:35.388Z,16.4
2017-09-18T06:52:35.438Z,17.6
2017-09-18T06:53:35.473Z,18.9
2017-09-18T06:54:35.536Z,19.6
2017-09-18T06:55:35.618Z,19.1
2017-09-18T06:56:35.642Z,18.5
2017-09-18T06:57:35.706Z,18.8
2017-09-18T06:58:35.762Z,19.5
2017-09-18T06:59:35.832Z,19
2017-09-18T07:00:35.887Z,19.9
2017-09-18T07:01:35.955Z,20.8
2017-09-18T07:02:36.018Z,21.4
2017-09-18T07:03:36.095Z,21.8
2017-09-18T07:04:36.148Z,22.1
2017-09-18T07:05:36.282Z,22.5
2017-09-18T07:06:36.284Z,22.9
2017-09-18T07:07:36.341Z,23.1
2017-09-18T07:08:36.472Z,23.4
2017-09-18T07:09:36.529Z,23.8
2017-09-18T07:10:36.616Z,24
2017-09-18T07:11:36.680Z,24.1
2017-09-18T07:12:36.708Z,24.3
2017-09-18T07:13:36.768Z,24.5
2017-09-18T07:14:36.853Z,24.8
2017-09-18T07:15:36.913Z,25
2017-09-18T07:16:36.971Z,25.1
2017-09-18T07:17:37.021Z,25.3
2017-09-18T07:18:37.077Z,25.5
2017-09-18T07:19:37.156Z,25.6
2017-09-18T07:20:37.233Z,25.8
2017-09-18T07:21:37.294Z,26
2017-09-18T07:22:37.365Z,26.1
2017-09-18T07:23:37.455Z,26.3
2017-09-18T07:24:37.455Z,26.5
2017-09-18T07:26:37.617Z,26.4
2017-09-18T07:27:37.730Z,26.5
2017-09-18T07:32:37.991Z,27.3
2017-09-18T07:33:38.063Z,27.5
2017-09-18T07:34:38.121Z,27.6
2017-09-18T07:36:38.250Z,27.8
2017-09-18T07:38:38.432Z,27.9
2017-09-18T07:39:38.458Z,28
2017-09-18T07:40:38.572Z,28.1
2017-09-18T07:41:38.621Z,28.3
2017-09-18T07:43:38.743Z,28.4
2017-09-18T07:44:38.832Z,28.5
2017-09-18T07:45:38.917Z,28.6
2017-09-18T07:46:38.903Z,28.8
2017-09-18T07:47:38.978Z,29
2017-09-18T07:48:39.038Z,29.3
2017-09-18T07:49:39.126Z,29.4
2017-09-18T07:50:39.222Z,29.5
2017-09-18T07:51:39.238Z,29.8
2017-09-18T07:52:39.300Z,30
2017-09-18T07:53:39.427Z,30.1
2017-09-18T07:54:39.528Z,30.4
2017-09-18T07:55:39.573Z,30.6
2017-09-18T07:56:39.574Z,30.9
2017-09-18T07:57:39.663Z,31.1
2017-09-18T07:58:39.752Z,31.4
2017-09-18T07:59:39.814Z,31.6
2017-09-18T08:00:39.884Z,31.9
2017-09-18T08:01:39.943Z,32.2
2017-09-18T08:02:40.021Z,32.3
2017-09-18T08:03:40.051Z,31.1
2017-09-18T08:04:40.136Z,29.9
2017-09-18T08:05:40.209Z,28.8
2017-09-18T08:06:40.236Z,28.6
2017-09-18T08:07:40.320Z,28.3
2017-09-18T08:08:40.381Z,28.5
2017-09-18T08:09:40.444Z,29
2017-09-18T08:10:40.505Z,30
2017-09-18T08:11:40.568Z,30.6
2017-09-18T08:12:40.681Z,30.8
2017-09-18T08:13:40.710Z,29.8
2017-09-18T08:14:40.784Z,29.1
2017-09-18T08:15:40.912Z,28.5
2017-09-18T08:16:40.902Z,27.9
2017-09-18T08:17:40.978Z,27.3
2017-09-18T08:18:41.042Z,26.8
2017-09-18T08:19:41.089Z,26.5
2017-09-18T08:20:41.226Z,26.1
2017-09-18T08:21:41.215Z,25.6
2017-09-18T08:22:41.380Z,25.4
2017-09-18T08:23:41.422Z,25.1
2017-09-18T08:24:41.479Z,24.9
2017-09-18T08:25:41.522Z,24.8
2017-09-18T08:26:41.558Z,24.6
2017-09-18T08:27:41.704Z,24.5
2017-09-18T08:29:41.746Z,24.4
2017-09-18T08:31:41.879Z,24.5
2017-09-18T08:33:42.017Z,24.6
2017-09-18T08:34:42.100Z,24.9
2017-09-18T08:35:42.151Z,25
2017-09-18T08:36:42.261Z,25.9
2017-09-18T08:37:42.333Z,27.6
2017-09-18T08:38:42.412Z,27.8
2017-09-18T08:39:42.465Z,28
2017-09-18T08:40:42.489Z,28.9
2017-09-18T08:41:42.560Z,29.3
2017-09-18T08:42:42.608Z,30
2017-09-18T08:43:42.677Z,31
2017-09-18T08:44:42.838Z,31.9
2017-09-18T08:45:42.864Z,32.2
2017-09-18T08:46:42.935Z,32.8
2017-09-18T08:47:43.005Z,31.9
2017-09-18T08:48:43.094Z,31.3
2017-09-18T08:49:43.157Z,30.6
2017-09-18T08:50:43.235Z,30.3
2017-09-18T08:51:43.199Z,30
2017-09-18T08:52:43.317Z,29.9
2017-09-18T08:53:43.374Z,29.8
2017-09-18T08:54:43.448Z,29.6
2017-09-18T08:55:43.488Z,29.4
2017-09-18T08:56:43.541Z,29.3
2017-09-18T08:57:43.631Z,29.1
2017-09-18T08:58:43.797Z,28.9
2017-09-18T08:59:43.719Z,28.8
2017-09-18T09:00:43.773Z,28.6
2017-09-18T09:01:43.841Z,28.5
2017-09-18T09:02:43.987Z,28.4
2017-09-18T09:06:44.216Z,28.5
2017-09-18T09:08:44.352Z,28.6
2017-09-18T09:09:44.377Z,29.3
2017-09-18T09:10:44.442Z,29.8
2017-09-18T09:11:44.562Z,29.6
2017-09-18T09:13:44.631Z,29.8
2017-09-18T09:15:44.753Z,31.1
2017-09-18T09:16:44.871Z,31.8
2017-09-18T09:17:44.897Z,31.9
2017-09-18T09:18:45.072Z,32.7
2017-09-18T09:19:45.005Z,33.5
2017-09-18T09:20:45.138Z,33.3
2017-09-18T09:21:45.128Z,32.9
2017-09-18T09:22:45.248Z,32.3
2017-09-18T09:23:45.270Z,31.6
2017-09-18T09:24:45.402Z,31.5
2017-09-18T09:25:45.426Z,32.5
2017-09-18T09:26:45.472Z,33.8
2017-09-18T09:27:45.558Z,33.7
2017-09-18T09:28:45.583Z,34.3
2017-09-18T09:29:45.732Z,35
2017-09-18T09:30:45.780Z,35.2
2017-09-18T09:31:45.822Z,35
2017-09-18T09:32:45.892Z,33.7
2017-09-18T09:33:46.002Z,32
2017-09-18T09:34:46.028Z,30.6
2017-09-18T09:35:46.141Z,29.5
2017-09-18T09:36:46.150Z,28.4
2017-09-18T09:37:46.214Z,27.5
2017-09-18T09:38:46.274Z,26.8
2017-09-18T09:39:46.301Z,26.3
2017-09-18T09:40:46.401Z,25.9
2017-09-18T09:41:46.448Z,26.1
2017-09-18T09:42:46.498Z,26.5
2017-09-18T09:43:46.604Z,26.8
2017-09-18T09:44:46.633Z,27
2017-09-18T09:45:46.726Z,26.9
2017-09-18T09:47:46.810Z,26.4
2017-09-18T09:48:46.881Z,25.8
2017-09-18T09:49:46.966Z,25.3
2017-09-18T09:50:47.063Z,25.1
2017-09-18T09:51:47.130Z,25
2017-09-18T09:53:47.403Z,25.4
2017-09-18T09:54:47.275Z,25.5
2017-09-18T09:55:47.381Z,25.6
2017-09-18T09:56:47.457Z,26
2017-09-18T09:58:47.582Z,26.4
2017-09-18T09:59:47.662Z,26.3
2017-09-18T10:00:47.665Z,26.8
2017-09-18T10:01:47.778Z,27.4
2017-09-18T10:04:47.919Z,27.6
2017-09-18T10:05:48.041Z,27.9
2017-09-18T10:06:48.048Z,27.8
2017-09-18T10:07:48.176Z,27.4
2017-09-18T10:08:48.215Z,27
2017-09-18T10:09:48.313Z,26.8
2017-09-18T10:11:48.402Z,27
2017-09-18T10:12:48.509Z,27.4
2017-09-18T10:13:48.539Z,27.6
2017-09-18T10:14:48.646Z,28.5
2017-09-18T10:15:48.722Z,29.4
2017-09-18T10:16:48.738Z,30.1
2017-09-18T10:17:48.798Z,30.8
2017-09-18T10:18:48.878Z,31.8
2017-09-18T10:19:48.947Z,32.9
2017-09-18T10:20:49.051Z,33.9
2017-09-18T10:21:49.064Z,34.8
2017-09-18T10:22:49.132Z,35.4
2017-09-18T10:23:49.211Z,36
2017-09-18T10:24:49.262Z,36.7
2017-09-18T10:25:49.338Z,37.2
2017-09-18T10:26:49.403Z,37.8
2017-09-18T10:27:49.408Z,38.3
2017-09-18T10:28:49.524Z,38.8
2017-09-18T10:29:49.588Z,39.3
2017-09-18T10:30:49.617Z,39.7
2017-09-18T10:31:49.684Z,40.2
2017-09-18T10:32:49.732Z,40.7
2017-09-18T10:33:49.801Z,40.9
2017-09-18T10:34:49.854Z,41.3
2017-09-18T10:35:49.971Z,41.4
2017-09-18T10:37:50.122Z,41.5
2017-09-18T10:38:50.115Z,41.9
2017-09-18T10:39:50.184Z,42.3
2017-09-18T10:40:50.247Z,42.7
2017-09-18T10:41:50.386Z,43.2
2017-09-18T10:42:50.448Z,43.7
2017-09-18T10:43:50.531Z,44
2017-09-18T10:44:50.533Z,43.3
2017-09-18T10:45:50.624Z,43.5
2017-09-18T10:46:50.637Z,43.8
2017-09-18T10:47:50.698Z,43.5
2017-09-18T10:48:50.778Z,43
2017-09-18T10:49:50.817Z,42.5
2017-09-18T10:50:51.018Z,41
2017-09-18T10:51:50.954Z,39.7
2017-09-18T10:52:51.017Z,38.5
2017-09-18T10:53:51.069Z,37.8
2017-09-18T10:54:51.197Z,37.4
2017-09-18T10:55:51.261Z,37
2017-09-18T10:56:51.261Z,36.8
2017-09-18T10:57:51.352Z,36.4
2017-09-18T10:59:51.515Z,36.3
2017-09-18T11:00:51.546Z,36
2017-09-18T11:01:51.584Z,36.2
2017-09-18T11:02:51.708Z,36.4
2017-09-18T11:03:51.790Z,37.5
2017-09-18T11:04:51.826Z,38.9
2017-09-18T11:05:52.144Z,39.9
2017-09-18T11:06:51.946Z,40.5
2017-09-18T11:07:52.026Z,40.7
2017-09-18T11:09:52.101Z,39.2
2017-09-18T11:10:52.200Z,37.9
2017-09-18T11:11:52.293Z,37.2
2017-09-18T11:12:52.355Z,36.3
2017-09-18T11:13:52.413Z,35.4
2017-09-18T11:14:52.505Z,34.8
2017-09-18T11:15:52.542Z,34.3
2017-09-18T11:16:52.565Z,33.8
2017-09-18T11:17:52.703Z,34
2017-09-18T11:18:52.712Z,35
2017-09-18T11:19:52.773Z,36
2017-09-18T11:20:52.889Z,34.9
2017-09-18T11:21:52.895Z,34.2
2017-09-18T11:22:52.949Z,33.5
2017-09-18T11:23:53.096Z,32.7
2017-09-18T11:24:53.077Z,31.9
2017-09-18T11:25:53.146Z,31.1
2017-09-18T11:26:53.266Z,30.6
2017-09-18T11:27:53.319Z,31.1
2017-09-18T11:28:53.395Z,30.5
2017-09-18T11:29:53.429Z,29.9
2017-09-18T11:30:53.510Z,29.4
2017-09-18T11:31:53.592Z,29
2017-09-18T11:32:53.632Z,28.6
2017-09-18T11:33:53.781Z,28.3
2017-09-18T11:34:53.796Z,28
2017-09-18T11:35:53.902Z,27.8
2017-09-18T11:36:53.924Z,27.5
2017-09-18T11:37:53.939Z,27.4
2017-09-18T11:38:54.057Z,28.6
2017-09-18T11:39:54.048Z,29.9
2017-09-18T11:40:54.128Z,31.1
2017-09-18T11:41:54.182Z,32.4
2017-09-18T11:42:54.279Z,33.4
2017-09-18T11:43:54.421Z,34
2017-09-18T11:44:54.371Z,34.2
2017-09-18T11:45:54.498Z,34.4
2017-09-18T11:46:54.536Z,34.2
2017-09-18T11:47:54.629Z,33.3
2017-09-18T11:48:54.699Z,32.5
2017-09-18T11:49:54.755Z,31.9
2017-09-18T11:50:54.839Z,31.4
2017-09-18T11:51:54.857Z,31.6
2017-09-18T11:52:54.912Z,33
2017-09-18T11:53:54.990Z,34.2
2017-09-18T11:54:55.053Z,35.4
2017-09-18T11:55:55.071Z,36.3
2017-09-18T11:56:55.166Z,37.2
2017-09-18T11:57:55.294Z,38
2017-09-18T11:58:55.288Z,38.8
2017-09-18T11:59:55.373Z,39.3
2017-09-18T12:00:55.404Z,39.8
2017-09-18T12:01:55.551Z,40.5
2017-09-18T12:02:55.553Z,41.4
2017-09-18T12:03:55.625Z,42.2
2017-09-18T12:04:55.650Z,42.9
2017-09-18T12:05:55.857Z,43.4
2017-09-18T12:06:55.781Z,43.8
2017-09-18T12:07:55.834Z,44.2
2017-09-18T12:08:55.915Z,43.7
2017-09-18T12:09:55.968Z,42.9
2017-09-18T12:10:56.112Z,42.4
2017-09-18T12:11:56.095Z,43.2
2017-09-18T12:12:56.192Z,43.8
2017-09-18T12:13:56.270Z,44.2
2017-09-18T12:14:56.337Z,43
2017-09-18T12:15:56.447Z,42.9
2017-09-18T12:16:56.469Z,43.3
2017-09-18T12:17:56.572Z,43.5
2017-09-18T12:18:56.637Z,43.9
2017-09-18T12:19:56.634Z,44.2
2017-09-18T12:20:56.761Z,44.3
2017-09-18T12:21:56.765Z,44.5
2017-09-18T12:22:56.820Z,44.8
2017-09-18T12:23:56.901Z,44.9
2017-09-18T12:24:56.939Z,44
2017-09-18T12:25:57.002Z,44.3
2017-09-18T12:26:57.075Z,44.4
2017-09-18T12:27:57.127Z,44.8
2017-09-18T12:28:57.183Z,44.9
2017-09-18T12:29:57.264Z,42.9
2017-09-18T12:30:57.323Z,41.5
2017-09-18T12:31:57.423Z,40.3
2017-09-18T12:32:57.482Z,40.9
2017-09-18T12:33:57.544Z,41.9
2017-09-18T12:34:57.621Z,42.7
2017-09-18T12:35:57.723Z,43.2
2017-09-18T12:36:57.747Z,41.3
2017-09-18T12:37:57.782Z,39.7
2017-09-18T12:38:57.888Z,40.2
2017-09-18T12:39:57.917Z,40.4
2017-09-18T12:40:57.989Z,41.4
2017-09-18T12:41:58.054Z,41.7
2017-09-18T12:42:58.112Z,40.8
2017-09-18T12:43:58.178Z,41.4
2017-09-18T12:44:58.236Z,41.3
2017-09-18T12:45:58.297Z,40.7
2017-09-18T12:46:58.391Z,39.7
2017-09-18T12:47:58.424Z,38.5
2017-09-18T12:48:58.502Z,37.3
2017-09-18T12:49:58.569Z,35.9
2017-09-18T12:50:58.705Z,34.7
2017-09-18T12:51:58.653Z,33.7
2017-09-18T12:52:58.707Z,32.7
2017-09-18T12:53:58.862Z,31.8
2017-09-18T12:54:58.874Z,31
2017-09-18T12:55:58.908Z,30.3
2017-09-18T12:56:58.960Z,29.6
2017-09-18T12:57:59.079Z,29
2017-09-18T12:58:59.108Z,28.4
2017-09-18T12:59:59.154Z,27.9
2017-09-18T13:00:59.284Z,27.4
2017-09-18T13:01:59.295Z,27
2017-09-18T13:02:59.377Z,26.5
2017-09-18T13:03:59.457Z,26.1
2017-09-18T13:04:59.487Z,25.8
2017-09-18T13:05:59.639Z,25.5
2017-09-18T13:06:59.648Z,25.1
2017-09-18T13:07:59.713Z,24.9
2017-09-18T13:08:59.719Z,24.6
2017-09-18T13:09:59.802Z,24.4
2017-09-18T13:10:59.852Z,24.1
2017-09-18T13:11:59.911Z,23.9
2017-09-18T13:13:00.053Z,23.8
2017-09-18T13:14:00.096Z,23.5
2017-09-18T13:15:00.099Z,23.4
2017-09-18T13:17:00.322Z,23.3
2017-09-18T13:18:00.669Z,23.1
2017-09-18T13:20:00.646Z,23
2017-09-18T13:21:01.176Z,22.9
2017-09-18T13:23:00.606Z,22.8
2017-09-18T13:25:00.730Z,22.6
2017-09-18T13:26:00.778Z,22.5
2017-09-18T13:29:01.013Z,22.4
2017-09-18T13:31:01.094Z,22.3
2017-09-18T13:33:01.240Z,22.1
2017-09-18T13:35:01.409Z,22
2017-09-18T13:37:01.499Z,21.9
2017-09-18T13:38:01.615Z,21.8
2017-09-18T13:39:01.653Z,21.6
2017-09-18T13:41:01.749Z,21.4
2017-09-18T13:42:01.814Z,21.3
2017-09-18T13:43:02.119Z,21
2017-09-18T13:44:01.946Z,20.9
2017-09-18T13:45:02.124Z,20.8
2017-09-18T13:46:02.130Z,20.6
2017-09-18T13:47:02.199Z,20.5
2017-09-18T13:48:02.300Z,20.3
2017-09-18T13:49:02.409Z,20.1
2017-09-18T13:50:02.427Z,20
2017-09-18T13:51:02.411Z,19.8
2017-09-18T13:52:02.531Z,19.6
2017-09-18T13:53:02.576Z,19.5
2017-09-18T13:54:02.671Z,19.3
2017-09-18T13:55:02.810Z,19.1
2017-09-18T13:56:02.822Z,18.9
2017-09-18T13:57:02.929Z,18.8
2017-09-18T13:58:02.990Z,18.6
2017-09-18T13:59:03.011Z,18.5
2017-09-18T14:01:03.150Z,18.4
2017-09-18T14:02:03.195Z,18.3
2017-09-18T14:03:03.316Z,18.1
2017-09-18T14:04:03.302Z,18
2017-09-18T14:05:03.391Z,17.9
2017-09-18T14:06:03.523Z,17.8
2017-09-18T14:08:03.566Z,17.6
2017-09-18T14:09:03.598Z,17.5
2017-09-18T14:10:03.754Z,17.4
2017-09-18T14:11:03.687Z,17.3
2017-09-18T14:12:03.837Z,17.1
2017-09-18T14:14:03.880Z,17
2017-09-18T14:15:03.950Z,17.3
2017-09-18T14:16:04.242Z,17.5
2017-09-18T14:17:04.206Z,17.8
2017-09-18T14:18:04.151Z,17.9
2017-09-18T14:19:04.334Z,17.8
2017-09-18T14:21:04.380Z,17.9
2017-09-18T14:24:04.548Z,18
2017-09-18T14:25:04.622Z,18.1
2017-09-18T14:26:04.670Z,18.3
2017-09-18T14:27:04.847Z,18.5
2017-09-18T14:28:04.810Z,18.6
2017-09-18T14:30:04.924Z,18.8
2017-09-18T14:31:05.034Z,19.3
2017-09-18T14:32:05.259Z,19.9
2017-09-18T14:33:05.159Z,20.4
2017-09-18T14:34:05.175Z,20.5
2017-09-18T14:35:05.508Z,20.4
2017-09-18T14:36:05.343Z,20.3
2017-09-18T14:37:05.380Z,20.1
2017-09-18T14:38:05.446Z,19.9
2017-09-18T14:39:05.486Z,19.8
2017-09-18T14:40:05.562Z,19.6
2017-09-18T14:41:05.604Z,19.5
2017-09-18T14:42:05.666Z,19.4
2017-09-18T14:43:05.724Z,19.3
2017-09-18T14:44:05.830Z,19.1
2017-09-18T14:45:05.910Z,19
2017-09-18T14:47:05.996Z,18.9
2017-09-18T14:53:06.413Z,19
2017-09-18T14:56:06.627Z,19.1
2017-09-18T14:58:06.718Z,19.3
2017-09-18T14:59:06.796Z,19.6
2017-09-18T15:01:06.938Z,19.8
2017-09-18T15:02:06.989Z,20
2017-09-18T15:03:06.992Z,20.1
2017-09-18T15:04:07.085Z,20.4
2017-09-18T15:05:07.171Z,20.5
2017-09-18T15:06:07.224Z,20.6
2017-09-18T15:07:07.233Z,20.8
2017-09-18T15:08:07.408Z,21
2017-09-18T15:09:07.353Z,21.3
2017-09-18T15:10:07.481Z,21.4
2017-09-18T15:11:07.484Z,21.6
2017-09-18T15:12:07.583Z,21.8
2017-09-18T15:14:07.674Z,21.9
2017-09-18T15:17:07.859Z,22
2017-09-18T15:24:08.342Z,22.5
2017-09-18T15:25:08.372Z,23.6
2017-09-18T15:26:08.485Z,24.6
2017-09-18T15:27:08.515Z,25.4
2017-09-18T15:28:08.603Z,26
2017-09-18T15:29:08.621Z,26.8
2017-09-18T15:30:08.679Z,27.3
2017-09-18T15:31:08.745Z,27.6
2017-09-18T15:32:08.805Z,26.9
2017-09-18T15:33:08.852Z,26
2017-09-18T15:34:08.952Z,25.4
2017-09-18T15:35:08.985Z,24.8
2017-09-18T15:36:09.043Z,24.3
2017-09-18T15:37:09.116Z,23.6
2017-09-18T15:38:09.225Z,23.1
2017-09-18T15:39:09.257Z,22.8
2017-09-18T15:40:09.359Z,22.3
2017-09-18T15:41:09.447Z,21.9
2017-09-18T15:42:09.511Z,21.6
2017-09-18T15:43:09.564Z,21.3
2017-09-18T15:44:09.641Z,21
2017-09-18T15:45:09.679Z,20.8
2017-09-18T15:46:09.719Z,20.5
2017-09-18T15:47:09.786Z,20.3
2017-09-18T15:48:09.921Z,20
2017-09-18T15:49:09.976Z,19.8
2017-09-18T15:50:10.039Z,19.5
2017-09-18T15:51:10.078Z,19.3
2017-09-18T15:52:10.130Z,19
2017-09-18T15:53:10.200Z,18.8
2017-09-18T15:54:10.276Z,18.6
2017-09-18T15:55:10.295Z,18.4
2017-09-18T15:56:10.361Z,18.3
2017-09-18T15:57:10.482Z,18
2017-09-18T15:58:10.494Z,17.9
2017-09-18T15:59:10.590Z,17.6
2017-09-18T16:00:10.631Z,17.5
2017-09-18T16:01:10.752Z,17.3
2017-09-18T16:02:10.766Z,17.1
2017-09-18T16:03:10.886Z,17
2017-09-18T16:04:10.942Z,16.9
2017-09-18T16:05:10.937Z,16.8
2017-09-18T16:06:11.155Z,16.6
2017-09-18T16:07:11.089Z,16.4
2017-09-18T16:08:11.209Z,16.3
2017-09-18T16:09:11.215Z,16.1
2017-09-18T16:10:11.278Z,16
2017-09-18T16:11:11.395Z,15.9
2017-09-18T16:12:11.443Z,15.8
2017-09-18T16:13:11.508Z,15.6
2017-09-18T16:14:11.552Z,15.5
2017-09-18T16:15:11.589Z,15.4
2017-09-18T16:16:11.710Z,15.3
2017-09-18T16:17:11.740Z,15.1
2017-09-18T16:19:11.871Z,15
2017-09-18T16:20:11.914Z,14.9
2017-09-18T16:22:12.035Z,14.8
2017-09-18T16:23:12.080Z,14.6
2017-09-18T16:25:12.203Z,14.5
2017-09-18T16:27:12.389Z,14.4
2017-09-18T16:28:12.394Z,14.3
2017-09-18T16:29:12.514Z,14.1
2017-09-18T16:30:12.571Z,14
2017-09-18T16:31:12.627Z,13.9
2017-09-18T16:32:12.692Z,13.8
2017-09-18T16:33:12.694Z,13.6
2017-09-18T16:34:12.799Z,13.5
2017-09-18T16:35:12.827Z,13.4
2017-09-18T16:36:12.978Z,13.3
2017-09-18T16:37:13.014Z,13.1
2017-09-18T16:38:13.087Z,13
2017-09-18T16:39:13.129Z,12.9
2017-09-18T16:41:13.275Z,12.8
2017-09-18T16:44:13.426Z,12.6
2017-09-18T16:47:13.675Z,12.5
2017-09-18T16:51:13.962Z,12.4
2017-09-18T16:55:14.156Z,12.3
2017-09-18T16:58:14.401Z,12.1
2017-09-18T17:03:14.729Z,12
2017-09-18T17:07:14.941Z,11.9
2017-09-18T17:11:15.216Z,11.8
2017-09-18T17:16:15.919Z,11.6
2017-09-18T17:21:16.532Z,11.5
2017-09-18T17:28:17.687Z,11.4
2017-09-18T17:30:17.808Z,11.5
2017-09-18T17:31:17.823Z,11.4
2017-09-18T17:39:18.462Z,11.3
2017-09-18T18:00:19.790Z,11.1
2017-09-18T18:01:19.970Z,11.3
2017-09-18T18:02:19.922Z,11.1
2017-09-18T18:03:19.982Z,11.3
2017-09-18T18:04:20.105Z,11.1
2017-09-18T18:14:20.739Z,11
2017-09-18T18:23:21.380Z,10.9
2017-09-18T18:45:22.741Z,10.8
2017-09-18T18:46:22.863Z,10.9
2017-09-18T18:47:22.896Z,10.8
2017-09-18T18:49:22.999Z,10.9
2017-09-18T18:50:23.114Z,10.8
2017-09-18T19:10:24.386Z,10.6
2017-09-18T19:23:25.284Z,10.5
2017-09-18T19:48:47.253Z,10.5
2017-09-18T19:50:44.875Z,10.4
2017-09-18T20:25:13.887Z,10.3
2017-09-18T20:32:19.641Z,10.1
2017-09-18T20:33:20.529Z,10
2017-09-18T20:37:24.162Z,9.9
2017-09-18T20:40:26.882Z,9.8
2017-09-18T20:45:31.449Z,9.6
2017-09-18T21:16:49.537Z,8.9
2017-09-18T21:20:53.226Z,9
2017-09-18T21:21:54.129Z,8.9
2017-09-18T21:24:56.898Z,9
2017-09-18T21:30:01.348Z,9.1
2017-09-18T21:45:14.902Z,9
2017-09-18T21:49:18.561Z,8.9
2017-09-18T21:53:22.216Z,8.8
2017-09-18T21:59:27.587Z,8.6
2017-09-18T22:01:29.365Z,8.5
2017-09-18T22:04:32.094Z,8.4
2017-09-18T22:08:35.758Z,8.3
2017-09-18T22:13:40.292Z,8.1
2017-09-18T22:21:47.568Z,8
2017-09-18T22:24:50.232Z,7.9
2017-09-18T22:27:52.988Z,7.8
2017-09-18T22:31:56.577Z,7.7
2017-09-18T22:36:00.212Z,7.5
2017-09-18T22:40:03.847Z,7.4
2017-09-18T22:44:07.527Z,7.3
2017-09-18T22:50:12.933Z,7.2
2017-09-18T22:54:16.503Z,7
2017-09-18T23:00:22.000Z,6.9
2017-09-18T23:13:33.677Z,6.8
2017-09-18T23:17:37.314Z,6.7
2017-09-18T23:35:53.622Z,6.8
2017-09-18T23:40:58.158Z,6.9
2017-09-18T23:44:00.825Z,7
2017-09-18T23:50:06.248Z,7.2
